Welcome to La Porte Aviation Services!

An aviation adventure awaits

Current Weather Conditions

Available data for KPPO from the past 2 hours
LA PORTE, IN
Metar
KPPO 190335Z AUTO 00000KT 10SM CLR 18/16 A2989 RMK AO2 T01760160

03:35 UTC

Wind: 0° 0kt

Visibility: 10 SM

Sky:

Temp: 18 deg C / 64.4 deg F

Dewpoint: 16 deg C / 60.8 deg F

Pressure: 29.89 inHg

Connect with us on Facebook!

Facebook By Weblizar Powered By Weblizar